Time;durP1;ratioP1;P1;durP2;ratioP2;P2;SDS_P1;SDS_P2;PMS_P1;PMS_P2;Temp;Humidity;BMP_temperature;BMP_pressure;BME280_temperature;BME280_humidity;BME280_pressure;Samples;Min_cycle;Max_cycle;Signal;HPM_P1;HPM_P2
2022/04/17 00:00:25;;;;;;;5.28;3.28;;;;;;;;;;5075374;28;20549;-67
2022/04/17 00:02:51;;;;;;;7.70;3.85;;;;;;;;;;5095161;28;20031;-68
2022/04/17 00:05:17;;;;;;;5.88;3.75;;;;;;;;;;5095036;28;20027;-67
2022/04/17 00:07:44;;;;;;;6.80;3.53;;;;;;;;;;5078061;28;20025;-67
2022/04/17 00:10:10;;;;;;;5.60;3.38;;;;;;;;;;5078378;28;20032;-67
2022/04/17 00:12:37;;;;;;;9.48;3.17;;;;;;;;;;5085634;28;20032;-67
2022/04/17 00:15:03;;;;;;;5.07;2.97;;;;;;;;;;5095631;28;20028;-67
2022/04/17 00:17:29;;;;;;;5.97;3.53;;;;;;;;;;5075470;28;20028;-67
2022/04/17 00:19:55;;;;;;;5.57;3.15;;;;;;;;;;5089338;28;20024;-67
2022/04/17 00:22:23;;;;;;;7.47;3.63;;;;;;;;;;5078618;28;20051;-67
2022/04/17 00:24:49;;;;;;;7.18;3.78;;;;;;;;;;5084760;28;20077;-68
2022/04/17 00:27:15;;;;;;;6.45;3.45;;;;;;;;;;5088189;28;20043;-67
2022/04/17 00:29:44;;;;;;;6.07;3.80;;;;;;;;;;5085529;28;20024;-67
2022/04/17 00:32:10;;;;;;;6.43;3.22;;;;;;;;;;5080782;28;20040;-67
2022/04/17 00:34:37;;;;;;;5.72;3.58;;;;;;;;;;5093405;28;20492;-67
2022/04/17 00:37:03;;;;;;;7.70;5.00;;;;;;;;;;5082072;28;20054;-67
2022/04/17 00:39:29;;;;;;;7.78;3.70;;;;;;;;;;5100225;28;20034;-67
2022/04/17 00:41:55;;;;;;;8.50;3.47;;;;;;;;;;5075003;28;20082;-67
2022/04/17 00:44:21;;;;;;;3.78;3.33;;;;;;;;;;5079546;28;20021;-67
2022/04/17 00:46:47;;;;;;;7.05;3.20;;;;;;;;;;5085056;28;20115;-67
2022/04/17 00:49:14;;;;;;;5.30;3.42;;;;;;;;;;5088485;28;20088;-67
2022/04/17 00:51:42;;;;;;;6.75;4.00;;;;;;;;;;5082695;28;20040;-68
2022/04/17 00:54:12;;;;;;;5.35;3.72;;;;;;;;;;5069162;28;20058;-67
2022/04/17 00:56:38;;;;;;;7.20;3.92;;;;;;;;;;5088305;28;20020;-67
2022/04/17 00:59:06;;;;;;;8.27;4.07;;;;;;;;;;5090066;28;20118;-67
2022/04/17 01:01:33;;;;;;;6.65;3.63;;;;;;;;;;5088268;28;20029;-68
2022/04/17 01:03:59;;;;;;;6.75;4.07;;;;;;;;;;5085502;28;20309;-67
2022/04/17 01:06:26;;;;;;;6.93;3.67;;;;;;;;;;5090803;28;20077;-67
2022/04/17 01:08:52;;;;;;;6.65;3.55;;;;;;;;;;5075715;28;20097;-67
2022/04/17 01:11:19;;;;;;;6.13;3.90;;;;;;;;;;5092274;28;20060;-67
2022/04/17 01:13:45;;;;;;;6.95;3.83;;;;;;;;;;5079893;28;20036;-67
2022/04/17 01:16:16;;;;;;;8.65;3.85;;;;;;;;;;5091561;28;20032;-67
2022/04/17 01:19:03;;;;;;;5.50;3.30;;;;;;;;;;5068142;28;20026;-67
2022/04/17 01:21:32;;;;;;;8.35;4.07;;;;;;;;;;5096783;28;20110;-67
2022/04/17 01:26:58;;;;;;;8.20;4.00;;;;;;;;;;5090867;28;20408;-67
2022/04/17 01:29:26;;;;;;;8.13;4.07;;;;;;;;;;5071711;28;20130;-67
2022/04/17 01:31:52;;;;;;;6.38;3.53;;;;;;;;;;5082811;28;20173;-67
2022/04/17 01:34:19;;;;;;;5.65;3.70;;;;;;;;;;5087875;28;20082;-67
2022/04/17 01:36:45;;;;;;;7.43;3.88;;;;;;;;;;5089979;28;20039;-67
2022/04/17 01:39:12;;;;;;;11.45;3.83;;;;;;;;;;5083113;28;20013;-67
2022/04/17 01:41:38;;;;;;;6.57;3.75;;;;;;;;;;5087751;28;20220;-68
2022/04/17 01:44:05;;;;;;;8.40;3.75;;;;;;;;;;5088382;28;20039;-67
2022/04/17 01:46:31;;;;;;;7.35;3.83;;;;;;;;;;5087983;28;20024;-67
2022/04/17 01:48:57;;;;;;;7.20;3.72;;;;;;;;;;5087051;28;20055;-67
2022/04/17 01:51:23;;;;;;;6.65;4.10;;;;;;;;;;5089056;28;20400;-67
2022/04/17 01:53:49;;;;;;;7.25;4.00;;;;;;;;;;5083348;28;20024;-67
2022/04/17 01:56:15;;;;;;;6.63;3.88;;;;;;;;;;5087290;28;20384;-67
2022/04/17 01:58:41;;;;;;;7.50;4.05;;;;;;;;;;5072649;28;20183;-67
2022/04/17 02:01:07;;;;;;;9.80;3.45;;;;;;;;;;5068870;28;20154;-67
2022/04/17 02:03:33;;;;;;;6.68;3.63;;;;;;;;;;5085287;28;20103;-67
2022/04/17 02:06:00;;;;;;;6.13;3.85;;;;;;;;;;5090416;28;20028;-68
2022/04/17 02:08:30;;;;;;;6.15;3.60;;;;;;;;;;5098094;28;20098;-67
2022/04/17 02:10:56;;;;;;;9.93;4.43;;;;;;;;;;5091273;28;20493;-67
2022/04/17 02:13:25;;;;;;;6.28;4.07;;;;;;;;;;5068054;28;20024;-67
2022/04/17 02:15:53;;;;;;;13.10;4.07;;;;;;;;;;5083276;28;20073;-67
2022/04/17 02:20:56;;;;;;;8.57;4.05;;;;;;;;;;5100511;22;20063;-66
2022/04/17 02:23:22;;;;;;;7.03;4.28;;;;;;;;;;5072571;28;20107;-66
2022/04/17 02:25:48;;;;;;;7.07;4.13;;;;;;;;;;5090949;28;20046;-67
2022/04/17 02:28:14;;;;;;;6.35;3.92;;;;;;;;;;5090704;28;20077;-66
2022/04/17 02:30:41;;;;;;;6.43;3.50;;;;;;;;;;5090211;28;20028;-68
2022/04/17 02:33:07;;;;;;;6.07;3.58;;;;;;;;;;5090685;28;20338;-66
2022/04/17 02:35:33;;;;;;;6.75;3.95;;;;;;;;;;5087113;28;20019;-66
2022/04/17 02:37:59;;;;;;;5.35;3.83;;;;;;;;;;5079805;28;20545;-66
2022/04/17 02:40:25;;;;;;;7.05;3.92;;;;;;;;;;5079570;28;20528;-67
2022/04/17 02:42:53;;;;;;;7.25;3.75;;;;;;;;;;5087277;28;20035;-67
2022/04/17 02:45:19;;;;;;;5.00;3.58;;;;;;;;;;5089130;28;20043;-66
2022/04/17 02:47:46;;;;;;;7.50;3.88;;;;;;;;;;5090571;28;20034;-66
2022/04/17 02:50:16;;;;;;;8.18;3.55;;;;;;;;;;5088671;28;20119;-66
2022/04/17 02:52:42;;;;;;;7.00;3.83;;;;;;;;;;5088789;28;20036;-67
2022/04/17 02:55:09;;;;;;;7.47;3.65;;;;;;;;;;5070842;28;20392;-66
2022/04/17 02:57:36;;;;;;;6.22;3.75;;;;;;;;;;5082757;28;20098;-66
2022/04/17 03:00:03;;;;;;;6.47;3.80;;;;;;;;;;5089689;28;20111;-67
2022/04/17 03:07:58;;;;;;;8.32;3.90;;;;;;;;;;5089867;28;20118;-67
2022/04/17 03:10:25;;;;;;;7.75;4.05;;;;;;;;;;5072162;28;20030;-66
2022/04/17 03:12:51;;;;;;;5.47;3.78;;;;;;;;;;5090185;28;20035;-67
2022/04/17 03:15:17;;;;;;;8.57;3.97;;;;;;;;;;5070916;28;20435;-67
2022/04/17 03:17:43;;;;;;;7.28;4.00;;;;;;;;;;5071497;28;20059;-67
2022/04/17 03:20:09;;;;;;;8.65;4.03;;;;;;;;;;5071050;28;20063;-66
2022/04/17 03:22:35;;;;;;;7.30;4.00;;;;;;;;;;5071525;28;20063;-66
2022/04/17 03:25:03;;;;;;;7.20;4.45;;;;;;;;;;5086126;28;20030;-66
2022/04/17 03:27:29;;;;;;;6.32;4.05;;;;;;;;;;5088437;28;20508;-67
2022/04/17 03:29:55;;;;;;;8.77;4.13;;;;;;;;;;5071068;28;20073;-67
2022/04/17 03:32:22;;;;;;;5.95;4.28;;;;;;;;;;5088574;28;20365;-67
2022/04/17 03:34:48;;;;;;;6.60;3.70;;;;;;;;;;5069332;28;20470;-66
2022/04/17 03:37:14;;;;;;;6.05;3.63;;;;;;;;;;5089079;28;20030;-66
2022/04/17 03:39:40;;;;;;;8.88;3.85;;;;;;;;;;5071057;28;20016;-66
2022/04/17 03:42:06;;;;;;;8.05;3.92;;;;;;;;;;5070662;28;20023;-67
2022/04/17 03:44:36;;;;;;;6.65;3.38;;;;;;;;;;5079237;28;20029;-66
2022/04/17 03:47:02;;;;;;;5.43;3.63;;;;;;;;;;5069840;28;20462;-66
2022/04/17 03:49:29;;;;;;;5.22;3.58;;;;;;;;;;5070728;28;20024;-66
2022/04/17 03:51:55;;;;;;;10.00;4.13;;;;;;;;;;5071347;28;20078;-66
2022/04/17 03:54:21;;;;;;;9.55;4.05;;;;;;;;;;5065691;28;20017;-66
2022/04/17 03:56:47;;;;;;;5.55;3.72;;;;;;;;;;5067548;28;20363;-66
2022/04/17 03:59:14;;;;;;;6.15;3.63;;;;;;;;;;5088006;28;20035;-66
2022/04/17 04:01:40;;;;;;;7.43;4.03;;;;;;;;;;5088582;28;20047;-66
2022/04/17 04:04:06;;;;;;;8.20;3.65;;;;;;;;;;5088622;28;20487;-66
2022/04/17 04:06:33;;;;;;;5.85;3.47;;;;;;;;;;5088981;28;20024;-66
2022/04/17 04:08:59;;;;;;;6.75;4.00;;;;;;;;;;5078868;28;20078;-66
2022/04/17 04:11:25;;;;;;;11.77;3.67;;;;;;;;;;5080641;28;20036;-66
2022/04/17 04:13:52;;;;;;;7.22;3.97;;;;;;;;;;5088960;28;20020;-66
2022/04/17 04:16:18;;;;;;;7.57;3.35;;;;;;;;;;5070168;28;20032;-66
2022/04/17 04:18:44;;;;;;;8.63;3.90;;;;;;;;;;5088175;28;20042;-66
2022/04/17 04:21:10;;;;;;;4.75;3.03;;;;;;;;;;5088336;28;20459;-66
2022/04/17 04:23:36;;;;;;;4.50;3.15;;;;;;;;;;5070938;28;20012;-66
2022/04/17 04:26:03;;;;;;;5.07;3.33;;;;;;;;;;5070704;28;20035;-67
2022/04/17 04:28:38;;;;;;;5.18;3.17;;;;;;;;;;5089228;28;20024;-66
2022/04/17 04:31:07;;;;;;;4.97;2.70;;;;;;;;;;5088922;28;20028;-66
2022/04/17 04:33:34;;;;;;;4.38;2.97;;;;;;;;;;5071893;28;20013;-66
2022/04/17 04:36:01;;;;;;;4.32;3.15;;;;;;;;;;5091738;28;20079;-67
2022/04/17 04:41:34;;;;;;;4.90;2.70;;;;;;;;;;5096153;28;20093;-66
2022/04/17 04:44:06;;;;;;;4.95;2.92;;;;;;;;;;5095454;28;20495;-66
2022/04/17 04:46:33;;;;;;;7.43;3.38;;;;;;;;;;5094978;28;20107;-66
2022/04/17 04:51:44;;;;;;;3.90;3.08;;;;;;;;;;5090326;28;20082;-67
2022/04/17 04:54:09;;;;;;;4.40;2.95;;;;;;;;;;5077437;28;20051;-66
2022/04/17 04:56:35;;;;;;;7.32;2.92;;;;;;;;;;5070851;28;20055;-67
2022/04/17 04:59:03;;;;;;;5.85;3.05;;;;;;;;;;5091338;28;20024;-66
2022/04/17 05:01:29;;;;;;;5.90;3.03;;;;;;;;;;5089418;28;20032;-66
2022/04/17 05:03:55;;;;;;;9.93;2.67;;;;;;;;;;5089036;28;20040;-66
2022/04/17 05:06:21;;;;;;;4.03;2.65;;;;;;;;;;5090498;28;20374;-66
2022/04/17 05:08:47;;;;;;;6.25;3.20;;;;;;;;;;5089117;28;20024;-65
2022/04/17 05:11:13;;;;;;;4.93;2.50;;;;;;;;;;5091546;28;20039;-65
2022/04/17 05:13:39;;;;;;;5.20;2.53;;;;;;;;;;5083720;28;20384;-65
2022/04/17 05:16:05;;;;;;;6.05;2.70;;;;;;;;;;5091159;28;20024;-65
2022/04/17 05:18:32;;;;;;;5.30;2.60;;;;;;;;;;5089509;28;20497;-64
2022/04/17 05:20:58;;;;;;;7.13;2.80;;;;;;;;;;5078670;28;20028;-64
2022/04/17 05:23:30;;;;;;;8.20;2.85;;;;;;;;;;5089952;28;20024;-64
2022/04/17 05:26:00;;;;;;;4.57;2.55;;;;;;;;;;5086404;28;20093;-64
2022/04/17 05:28:28;;;;;;;3.38;2.20;;;;;;;;;;5089183;28;20102;-65
2022/04/17 05:30:54;;;;;;;3.55;2.42;;;;;;;;;;5087876;28;20127;-65
2022/04/17 05:33:21;;;;;;;4.18;2.55;;;;;;;;;;5072957;28;20106;-64
2022/04/17 05:35:48;;;;;;;5.68;2.92;;;;;;;;;;5072643;28;20038;-65
2022/04/17 05:38:14;;;;;;;4.88;2.63;;;;;;;;;;5090670;28;20591;-65
2022/04/17 05:40:44;;;;;;;4.35;2.75;;;;;;;;;;5090189;28;20016;-64
2022/04/17 05:43:11;;;;;;;7.55;2.40;;;;;;;;;;5071884;28;20470;-65
2022/04/17 05:45:38;;;;;;;5.50;2.70;;;;;;;;;;5092255;28;20030;-65
2022/04/17 05:48:05;;;;;;;8.60;3.10;;;;;;;;;;5088978;28;20020;-64
2022/04/17 05:50:31;;;;;;;3.33;2.15;;;;;;;;;;5064159;28;20066;-65
2022/04/17 05:52:57;;;;;;;4.78;2.20;;;;;;;;;;5090119;28;20032;-64
2022/04/17 05:55:23;;;;;;;3.17;2.33;;;;;;;;;;5090852;28;20026;-64
2022/04/17 05:57:49;;;;;;;3.28;2.30;;;;;;;;;;5090474;28;20030;-64
2022/04/17 06:00:16;;;;;;;3.38;2.17;;;;;;;;;;5087130;28;20070;-64
2022/04/17 06:02:44;;;;;;;3.40;2.47;;;;;;;;;;5064961;28;20025;-64
2022/04/17 06:05:11;;;;;;;6.43;2.60;;;;;;;;;;5090222;28;20452;-64
2022/04/17 06:07:37;;;;;;;7.15;2.13;;;;;;;;;;5071589;28;20103;-64
2022/04/17 06:10:04;;;;;;;3.72;2.05;;;;;;;;;;5072135;28;20094;-64
2022/04/17 06:12:30;;;;;;;4.63;2.63;;;;;;;;;;5088574;28;20095;-64
2022/04/17 06:14:56;;;;;;;3.42;2.00;;;;;;;;;;5071234;28;20089;-64
2022/04/17 06:17:22;;;;;;;3.83;2.17;;;;;;;;;;5090449;28;20245;-64
2022/04/17 06:19:48;;;;;;;4.72;2.42;;;;;;;;;;5089982;28;20443;-71
2022/04/17 06:22:14;;;;;;;4.20;2.33;;;;;;;;;;5087153;28;20508;-72
2022/04/17 06:24:40;;;;;;;4.55;1.90;;;;;;;;;;5071516;28;20520;-71
2022/04/17 06:27:06;;;;;;;6.13;2.50;;;;;;;;;;5089871;28;20107;-72
2022/04/17 06:29:32;;;;;;;3.33;2.47;;;;;;;;;;5071865;28;20020;-71
2022/04/17 06:31:58;;;;;;;4.40;2.50;;;;;;;;;;5089741;28;20561;-71
2022/04/17 06:34:24;;;;;;;3.80;2.30;;;;;;;;;;5072104;28;20054;-71
2022/04/17 06:36:50;;;;;;;4.45;2.60;;;;;;;;;;5074347;28;20099;-72
2022/04/17 06:39:16;;;;;;;8.10;2.28;;;;;;;;;;5091685;28;20107;-70
2022/04/17 06:41:44;;;;;;;4.28;2.40;;;;;;;;;;5065046;28;20013;-71
2022/04/17 06:44:11;;;;;;;5.50;2.55;;;;;;;;;;5069738;28;20073;-70
2022/04/17 06:46:37;;;;;;;4.35;2.50;;;;;;;;;;5071184;28;20024;-70
2022/04/17 06:49:03;;;;;;;7.78;2.40;;;;;;;;;;5089118;28;20028;-70
2022/04/17 06:51:29;;;;;;;7.93;2.90;;;;;;;;;;5088608;28;20504;-71
2022/04/17 06:53:55;;;;;;;6.03;2.47;;;;;;;;;;5089431;28;20036;-72
2022/04/17 06:59:42;;;;;;;3.88;2.58;;;;;;;;;;5074406;28;20039;-71
2022/04/17 07:02:23;;;;;;;5.68;2.42;;;;;;;;;;5074251;28;20012;-70
2022/04/17 07:04:49;;;;;;;6.00;2.80;;;;;;;;;;5073461;28;20032;-71
2022/04/17 07:07:15;;;;;;;4.05;2.53;;;;;;;;;;5086847;28;20492;-71
2022/04/17 07:09:41;;;;;;;4.93;2.55;;;;;;;;;;5066796;28;20020;-71
2022/04/17 07:12:07;;;;;;;5.85;2.85;;;;;;;;;;5089249;28;20167;-71
2022/04/17 07:14:33;;;;;;;5.57;2.38;;;;;;;;;;5089118;28;20024;-71
2022/04/17 07:16:59;;;;;;;3.97;2.15;;;;;;;;;;5084158;28;20028;-71
2022/04/17 07:22:29;;;;;;;4.78;2.33;;;;;;;;;;5084864;28;20075;-70
2022/04/17 07:24:57;;;;;;;3.60;2.35;;;;;;;;;;5067084;28;20481;-71
2022/04/17 07:27:23;;;;;;;6.78;2.70;;;;;;;;;;5086442;28;20081;-72
2022/04/17 07:29:57;;;;;;;3.05;1.90;;;;;;;;;;5090072;28;20060;-71
2022/04/17 07:35:36;;;;;;;4.72;2.85;;;;;;;;;;5090853;28;20381;-72
2022/04/17 07:38:04;;;;;;;6.13;2.58;;;;;;;;;;5069631;28;20039;-71
2022/04/17 07:40:45;;;;;;;4.53;2.55;;;;;;;;;;5091189;28;20028;-72
2022/04/17 07:43:11;;;;;;;5.22;2.63;;;;;;;;;;5071454;28;20020;-71
2022/04/17 07:45:38;;;;;;;4.53;2.80;;;;;;;;;;5091683;28;20018;-71
2022/04/17 07:48:07;;;;;;;4.53;2.70;;;;;;;;;;5064717;28;20473;-71
2022/04/17 07:56:56;;;;;;;5.00;2.60;;;;;;;;;;5028945;28;20027;-73
2022/04/17 07:59:24;;;;;;;6.93;2.75;;;;;;;;;;5021600;28;20026;-71
2022/04/17 08:08:06;;;;;;;3.03;2.20;;;;;;;;;;5028295;28;20159;-72
2022/04/17 08:10:33;;;;;;;3.92;2.33;;;;;;;;;;5021127;28;20021;-71
2022/04/17 08:12:59;;;;;;;6.18;2.67;;;;;;;;;;5030564;28;20033;-72
2022/04/17 08:24:42;;;;;;;3.85;2.20;;;;;;;;;;4976386;28;20054;-71
2022/04/17 08:27:13;;;;;;;2.72;1.98;;;;;;;;;;4966761;28;20512;-70
2022/04/17 08:32:45;;;;;;;6.75;2.50;;;;;;;;;;4993840;28;20092;-71
2022/04/17 08:35:15;;;;;;;5.75;2.42;;;;;;;;;;5045918;28;20033;-71
2022/04/17 08:37:42;;;;;;;4.13;2.42;;;;;;;;;;5045981;28;20020;-70
2022/04/17 08:40:09;;;;;;;3.28;2.05;;;;;;;;;;5048879;28;20493;-71
2022/04/17 08:45:38;;;;;;;7.00;2.67;;;;;;;;;;5050661;28;20040;-70
2022/04/17 08:48:04;;;;;;;4.22;2.65;;;;;;;;;;5041718;28;20300;-72
2022/04/17 08:50:31;;;;;;;4.18;2.83;;;;;;;;;;5049768;28;20037;-70
2022/04/17 09:00:43;;;;;;;5.85;2.10;;;;;;;;;;5050600;28;20552;-73
2022/04/17 09:03:09;;;;;;;2.90;2.22;;;;;;;;;;5046021;28;20032;-73
2022/04/17 09:05:37;;;;;;;2.92;2.05;;;;;;;;;;5049968;28;20131;-73
2022/04/17 09:08:13;;;;;;;6.28;2.80;;;;;;;;;;5046492;28;20454;-74
2022/04/17 09:10:40;;;;;;;4.05;2.20;;;;;;;;;;5046249;28;20025;-74
2022/04/17 09:13:06;;;;;;;3.63;2.38;;;;;;;;;;5048598;28;20040;-74
2022/04/17 09:15:33;;;;;;;5.90;2.25;;;;;;;;;;5047804;28;20025;-74
2022/04/17 09:17:59;;;;;;;3.83;2.33;;;;;;;;;;5046334;28;20397;-75
2022/04/17 09:20:31;;;;;;;4.55;2.20;;;;;;;;;;5047978;28;20025;-73
2022/04/17 09:22:58;;;;;;;3.45;1.92;;;;;;;;;;5046236;28;20032;-75
2022/04/17 09:25:26;;;;;;;4.43;2.05;;;;;;;;;;5037705;28;20069;-75
2022/04/17 09:27:55;;;;;;;4.22;2.00;;;;;;;;;;5047516;28;20021;-74
2022/04/17 09:30:26;;;;;;;4.75;1.60;;;;;;;;;;5048289;28;20559;-73
2022/04/17 09:32:52;;;;;;;2.92;1.98;;;;;;;;;;5044149;28;20041;-73
2022/04/17 09:35:21;;;;;;;5.30;2.00;;;;;;;;;;5061903;28;20045;-73
2022/04/17 09:37:47;;;;;;;5.30;2.17;;;;;;;;;;5049268;28;20135;-75
2022/04/17 09:40:18;;;;;;;1.73;1.55;;;;;;;;;;5050312;28;20032;-75
2022/04/17 09:42:47;;;;;;;3.47;2.13;;;;;;;;;;5047633;28;20017;-75
2022/04/17 09:45:13;;;;;;;11.70;2.40;;;;;;;;;;5050464;28;20030;-74
2022/04/17 09:47:39;;;;;;;2.80;2.08;;;;;;;;;;5041001;28;20061;-74
2022/04/17 09:50:09;;;;;;;2.50;1.85;;;;;;;;;;5041727;28;20029;-75
2022/04/17 09:52:35;;;;;;;3.45;1.85;;;;;;;;;;5043035;28;20029;-74
2022/04/17 09:55:02;;;;;;;3.38;1.92;;;;;;;;;;5049531;28;20032;-74
2022/04/17 09:57:33;;;;;;;4.20;1.50;;;;;;;;;;5049516;28;20474;-74
2022/04/17 10:00:08;;;;;;;3.30;1.80;;;;;;;;;;5045551;28;20391;-74
2022/04/17 10:02:34;;;;;;;4.10;2.30;;;;;;;;;;5050065;28;20025;-75
2022/04/17 10:05:01;;;;;;;5.65;2.05;;;;;;;;;;5048974;28;20083;-75
2022/04/17 10:07:28;;;;;;;6.60;1.80;;;;;;;;;;5041358;28;20438;-76
2022/04/17 10:09:54;;;;;;;3.83;1.73;;;;;;;;;;5046302;28;20037;-75
2022/04/17 10:12:23;;;;;;;2.10;1.80;;;;;;;;;;5042282;28;20033;-74
2022/04/17 10:14:49;;;;;;;2.08;1.30;;;;;;;;;;5046462;28;20028;-75
2022/04/17 10:17:20;;;;;;;3.65;2.55;;;;;;;;;;5038965;28;20029;-75
2022/04/17 10:19:47;;;;;;;2.50;1.58;;;;;;;;;;5044060;28;20025;-74
2022/04/17 10:22:18;;;;;;;3.47;1.73;;;;;;;;;;5042095;28;20025;-75
2022/04/17 10:24:51;;;;;;;4.63;1.98;;;;;;;;;;5045917;28;20060;-74
2022/04/17 10:27:19;;;;;;;4.03;2.30;;;;;;;;;;5044928;28;20021;-75
2022/04/17 10:29:48;;;;;;;3.50;2.05;;;;;;;;;;5043658;28;20255;-75
2022/04/17 10:32:29;;;;;;;5.53;2.67;;;;;;;;;;5043686;28;20398;-75
2022/04/17 10:34:55;;;;;;;4.80;2.40;;;;;;;;;;5045711;28;20486;-75
2022/04/17 10:37:46;;;;;;;3.97;2.20;;;;;;;;;;5041377;28;20036;-74
2022/04/17 10:40:12;;;;;;;2.53;2.00;;;;;;;;;;5055362;28;20021;-75
2022/04/17 10:42:54;;;;;;;2.97;2.20;;;;;;;;;;5042129;28;20437;-73
2022/04/17 10:45:20;;;;;;;2.38;2.00;;;;;;;;;;5041449;28;20040;-75
2022/04/17 10:48:04;;;;;;;4.45;2.40;;;;;;;;;;5044431;28;20122;-75
2022/04/17 10:50:31;;;;;;;4.13;2.10;;;;;;;;;;5041630;28;20044;-74
2022/04/17 10:52:57;;;;;;;4.05;2.20;;;;;;;;;;5030200;28;20524;-75
2022/04/17 10:55:23;;;;;;;3.03;2.05;;;;;;;;;;5048461;28;20048;-74
2022/04/17 10:57:50;;;;;;;6.03;2.30;;;;;;;;;;5048575;28;20454;-73
2022/04/17 11:00:28;;;;;;;3.25;2.35;;;;;;;;;;5045797;28;20083;-74
2022/04/17 11:02:54;;;;;;;6.43;2.72;;;;;;;;;;5045146;28;20021;-75
2022/04/17 11:08:26;;;;;;;4.18;2.20;;;;;;;;;;5045855;28;20036;-74
2022/04/17 11:10:54;;;;;;;3.85;2.28;;;;;;;;;;5046279;28;20047;-74
2022/04/17 11:13:21;;;;;;;4.85;2.60;;;;;;;;;;5043248;28;20043;-76
2022/04/17 11:15:57;;;;;;;6.18;2.65;;;;;;;;;;5043770;28;20048;-74
2022/04/17 11:18:29;;;;;;;5.03;2.60;;;;;;;;;;5044746;28;20037;-74
2022/04/17 11:20:56;;;;;;;6.90;2.40;;;;;;;;;;5043360;28;20022;-74
2022/04/17 11:23:41;;;;;;;4.05;2.55;;;;;;;;;;5044971;28;20039;-74
2022/04/17 11:26:07;;;;;;;3.70;2.50;;;;;;;;;;5044037;28;20390;-74
2022/04/17 11:28:34;;;;;;;6.65;3.15;;;;;;;;;;5047062;28;20037;-74
2022/04/17 11:31:00;;;;;;;3.72;2.60;;;;;;;;;;5045855;28;20124;-75
2022/04/17 11:33:27;;;;;;;3.67;2.38;;;;;;;;;;5044885;28;20021;-74
2022/04/17 11:35:53;;;;;;;4.90;2.78;;;;;;;;;;5046065;28;20356;-74
2022/04/17 11:38:19;;;;;;;3.25;2.15;;;;;;;;;;5046886;28;20079;-74
2022/04/17 11:40:48;;;;;;;4.32;2.78;;;;;;;;;;5040866;28;20103;-74
2022/04/17 11:43:15;;;;;;;2.55;2.20;;;;;;;;;;5044949;28;20028;-75
2022/04/17 11:45:42;;;;;;;8.63;2.65;;;;;;;;;;5041845;28;20055;-74
2022/04/17 11:48:10;;;;;;;6.45;2.63;;;;;;;;;;5037093;28;20116;-75
2022/04/17 11:50:36;;;;;;;4.22;2.60;;;;;;;;;;5044194;28;20037;-74
2022/04/17 11:53:03;;;;;;;5.10;2.03;;;;;;;;;;5040314;28;20544;-74
2022/04/17 11:55:32;;;;;;;3.97;2.20;;;;;;;;;;5037494;28;20033;-74
2022/04/17 11:57:59;;;;;;;4.93;2.30;;;;;;;;;;5027259;28;20026;-75
2022/04/17 12:00:29;;;;;;;9.07;2.53;;;;;;;;;;5024875;28;20045;-74
2022/04/17 12:02:56;;;;;;;7.73;1.63;;;;;;;;;;5019933;28;20436;-74
2022/04/17 12:05:22;;;;;;;3.30;2.33;;;;;;;;;;5029541;28;20227;-74
2022/04/17 12:07:56;;;;;;;4.45;2.40;;;;;;;;;;5027406;28;20071;-73
2022/04/17 12:10:23;;;;;;;3.35;2.15;;;;;;;;;;5026054;28;20037;-74
2022/04/17 12:12:49;;;;;;;4.70;2.28;;;;;;;;;;5026241;28;20040;-74
2022/04/17 12:15:16;;;;;;;3.90;2.35;;;;;;;;;;5022327;28;20056;-75
2022/04/17 12:17:42;;;;;;;6.72;2.22;;;;;;;;;;5026169;28;20033;-74
2022/04/17 12:20:13;;;;;;;4.47;2.72;;;;;;;;;;5028120;28;20391;-75
2022/04/17 12:22:40;;;;;;;4.90;2.47;;;;;;;;;;5021961;28;20022;-74
2022/04/17 12:25:15;;;;;;;3.95;2.50;;;;;;;;;;5020859;28;20132;-74
2022/04/17 12:27:41;;;;;;;3.35;1.98;;;;;;;;;;5023086;28;20029;-75
2022/04/17 12:30:07;;;;;;;2.92;2.17;;;;;;;;;;5029159;28;20033;-74
2022/04/17 12:32:42;;;;;;;2.78;2.05;;;;;;;;;;5027852;28;20026;-74
2022/04/17 12:35:13;;;;;;;4.22;2.10;;;;;;;;;;5031846;28;20506;-75
2022/04/17 12:37:39;;;;;;;2.53;2.05;;;;;;;;;;5029965;28;20362;-75
2022/04/17 12:40:18;;;;;;;3.70;2.03;;;;;;;;;;5025067;28;20583;-75
2022/04/17 12:42:44;;;;;;;4.47;1.80;;;;;;;;;;5034415;28;20057;-75
2022/04/17 12:45:10;;;;;;;3.47;2.17;;;;;;;;;;5027610;28;20061;-75
2022/04/17 12:47:38;;;;;;;13.05;2.42;;;;;;;;;;5026161;28;20102;-75
2022/04/17 12:50:09;;;;;;;4.93;2.47;;;;;;;;;;5026203;28;20404;-75
2022/04/17 12:52:35;;;;;;;3.25;2.22;;;;;;;;;;5027041;28;20174;-74
2022/04/17 12:55:11;;;;;;;4.60;2.50;;;;;;;;;;5028083;28;20475;-74
2022/04/17 12:57:37;;;;;;;3.78;2.15;;;;;;;;;;5029860;28;20435;-75
2022/04/17 13:00:24;;;;;;;2.70;2.00;;;;;;;;;;5030207;28;20041;-74
2022/04/17 13:02:50;;;;;;;5.50;2.20;;;;;;;;;;5025553;28;20360;-75
2022/04/17 13:05:23;;;;;;;4.30;2.25;;;;;;;;;;5023299;28;20025;-75
2022/04/17 13:07:49;;;;;;;3.92;2.17;;;;;;;;;;5025333;28;20060;-74
2022/04/17 13:10:15;;;;;;;4.53;2.17;;;;;;;;;;5028623;28;20462;-75
2022/04/17 13:12:46;;;;;;;9.57;4.07;;;;;;;;;;5031744;28;20349;-77
2022/04/17 13:15:16;;;;;;;3.88;1.80;;;;;;;;;;5028631;28;20433;-73
2022/04/17 13:17:45;;;;;;;6.30;2.30;;;;;;;;;;5025535;28;20108;-74
2022/04/17 13:20:11;;;;;;;6.23;2.17;;;;;;;;;;5030878;28;20014;-74
2022/04/17 13:22:38;;;;;;;3.53;2.20;;;;;;;;;;5020735;28;20038;-75
2022/04/17 13:25:05;;;;;;;4.60;2.40;;;;;;;;;;5029932;28;20036;-74
2022/04/17 13:27:31;;;;;;;5.80;2.08;;;;;;;;;;5016110;28;20037;-74
2022/04/17 13:29:57;;;;;;;6.88;2.10;;;;;;;;;;5022261;28;20100;-74
2022/04/17 13:32:23;;;;;;;5.50;1.77;;;;;;;;;;5025381;28;20103;-74
2022/04/17 13:34:49;;;;;;;7.00;2.72;;;;;;;;;;5030819;28;20033;-74
2022/04/17 13:39:59;;;;;;;2.58;1.75;;;;;;;;;;5039264;28;20051;-74
2022/04/17 13:42:26;;;;;;;6.85;2.33;;;;;;;;;;5030462;28;20056;-74
2022/04/17 13:44:51;;;;;;;3.25;2.10;;;;;;;;;;5031098;28;20026;-74
2022/04/17 13:47:17;;;;;;;4.57;2.28;;;;;;;;;;5030635;28;20514;-74
2022/04/17 13:49:44;;;;;;;4.07;2.20;;;;;;;;;;5028916;28;20040;-71
2022/04/17 13:52:10;;;;;;;2.35;1.65;;;;;;;;;;5024473;28;20069;-71
2022/04/17 13:54:36;;;;;;;5.05;2.03;;;;;;;;;;5023559;28;20096;-71
2022/04/17 13:57:03;;;;;;;2.20;1.77;;;;;;;;;;5027159;28;20041;-71
2022/04/17 13:59:29;;;;;;;2.60;1.90;;;;;;;;;;5025799;28;20038;-73
2022/04/17 14:01:55;;;;;;;4.25;2.30;;;;;;;;;;5027806;28;20021;-71
2022/04/17 14:04:22;;;;;;;4.70;1.88;;;;;;;;;;5020016;28;20033;-71
2022/04/17 14:06:48;;;;;;;4.15;1.90;;;;;;;;;;5025823;28;20033;-70
2022/04/17 14:09:23;;;;;;;1.92;1.67;;;;;;;;;;5030837;28;20033;-70
2022/04/17 14:11:49;;;;;;;3.40;2.10;;;;;;;;;;5028136;28;20116;-70
2022/04/17 14:14:15;;;;;;;5.07;2.55;;;;;;;;;;5029043;28;20100;-70
2022/04/17 14:16:41;;;;;;;2.92;1.83;;;;;;;;;;5026712;28;20091;-70
2022/04/17 14:19:08;;;;;;;6.43;2.20;;;;;;;;;;5029902;28;20018;-71
2022/04/17 14:21:35;;;;;;;6.28;2.15;;;;;;;;;;5025774;28;20435;-70
2022/04/17 14:24:01;;;;;;;6.53;2.95;;;;;;;;;;5030167;28;20036;-71
2022/04/17 14:26:27;;;;;;;7.03;1.98;;;;;;;;;;5029994;28;20037;-70
2022/04/17 14:28:53;;;;;;;3.35;1.77;;;;;;;;;;5030299;28;20033;-70
2022/04/17 14:31:19;;;;;;;2.22;1.63;;;;;;;;;;5029975;28;20521;-70
2022/04/17 14:33:45;;;;;;;3.13;2.08;;;;;;;;;;5028650;28;20100;-70
2022/04/17 14:36:13;;;;;;;3.05;2.03;;;;;;;;;;5028824;28;20033;-70
2022/04/17 14:38:39;;;;;;;2.90;1.85;;;;;;;;;;5023059;28;20391;-71
2022/04/17 14:41:05;;;;;;;2.78;1.88;;;;;;;;;;5023259;28;20021;-70
2022/04/17 14:43:31;;;;;;;2.33;2.00;;;;;;;;;;5029998;28;20120;-70
2022/04/17 14:45:57;;;;;;;2.72;1.85;;;;;;;;;;5029298;28;20478;-70
2022/04/17 14:48:23;;;;;;;3.83;2.05;;;;;;;;;;5028781;28;20021;-72
2022/04/17 14:53:56;;;;;;;2.72;1.90;;;;;;;;;;4956514;28;20054;-70
2022/04/17 14:56:22;;;;;;;2.25;1.95;;;;;;;;;;5027332;28;20049;-70
2022/04/17 14:58:48;;;;;;;9.00;2.47;;;;;;;;;;5028794;28;20482;-70
2022/04/17 15:01:14;;;;;;;2.88;1.65;;;;;;;;;;5021590;28;20104;-70
2022/04/17 15:03:43;;;;;;;2.65;1.48;;;;;;;;;;5029164;28;20030;-71
2022/04/17 15:06:10;;;;;;;7.13;1.85;;;;;;;;;;5020546;28;20029;-71
2022/04/17 15:08:36;;;;;;;2.78;1.60;;;;;;;;;;5021278;28;20383;-70
2022/04/17 15:11:02;;;;;;;3.85;1.80;;;;;;;;;;5028304;28;20033;-71
2022/04/17 15:13:28;;;;;;;2.75;1.55;;;;;;;;;;5026852;28;20037;-71
2022/04/17 15:15:54;;;;;;;5.43;1.88;;;;;;;;;;5014820;28;20025;-70
2022/04/17 15:18:20;;;;;;;4.53;1.92;;;;;;;;;;5023900;28;20026;-70
2022/04/17 15:20:46;;;;;;;2.28;1.70;;;;;;;;;;5029373;28;20022;-71
2022/04/17 15:23:12;;;;;;;2.42;1.58;;;;;;;;;;5029101;28;20123;-70
2022/04/17 15:25:39;;;;;;;4.40;1.77;;;;;;;;;;5013885;28;20014;-70
2022/04/17 15:28:05;;;;;;;2.70;1.55;;;;;;;;;;5026963;28;20032;-71
2022/04/17 15:30:31;;;;;;;3.53;1.77;;;;;;;;;;5028905;28;20025;-70
2022/04/17 15:32:57;;;;;;;1.85;1.67;;;;;;;;;;5029297;28;20052;-70
2022/04/17 15:35:24;;;;;;;2.47;1.70;;;;;;;;;;5028971;28;20025;-70
2022/04/17 15:37:54;;;;;;;4.70;1.70;;;;;;;;;;5020553;28;20026;-72
2022/04/17 15:40:20;;;;;;;2.33;1.63;;;;;;;;;;5041833;28;20022;-71
2022/04/17 15:42:46;;;;;;;5.30;1.73;;;;;;;;;;5060238;22;20099;-72
2022/04/17 15:48:00;;;;;;;2.75;1.70;;;;;;;;;;5087374;28;20046;-72
2022/04/17 15:50:30;;;;;;;3.13;1.88;;;;;;;;;;5089117;28;20120;-72
2022/04/17 15:52:59;;;;;;;5.45;2.20;;;;;;;;;;5080562;28;20040;-71
2022/04/17 15:55:25;;;;;;;3.78;2.28;;;;;;;;;;5067707;28;20028;-72
2022/04/17 15:57:53;;;;;;;3.22;2.00;;;;;;;;;;5086436;28;20020;-72